Flight Track Log - Related Links

Times and Time Zones

All times are in EDT time to prevent confusion due to time zone crossing. See the SWA896 flight status page for this flight to view local times or setup timezone preferences in your user account.

Time Position Orientation Groundspeed Altitude Reporting Facility
EDT Latitude Longitude Course Direction KTS MPH feet Rate Location/Type
Fri 01:53:35 PM 36.0747 -115.1714 266° West 192 221 3,300  Level Los Angeles Center
Fri 01:54:36 PM 36.0706 -115.2419 266° West 216 249 5,200 1,806 Climbing Los Angeles Center
Fri 01:55:08 PM 36.0486 -115.2653 221° Southwest 229 264 6,100 2,459 Climbing Los Angeles Center
Fri 01:55:37 PM 36.0067 -115.2867 202° Southwest 261 300 7,700 2,667 Climbing Los Angeles Center
Fri 01:56:11 PM 35.9792 -115.2992 200° South 258 297 8,900 3,045 Climbing Los Angeles Center
Fri 01:56:44 PM 35.9386 -115.3408 220° Southwest 280 322 11,100 3,000 Climbing Los Angeles Center
Fri 01:57:13 PM 35.9211 -115.3628 225° Southwest 272 313 12,000 3,000 Climbing Los Angeles Center
Fri 01:57:38 PM 35.8908 -115.4094 231° Southwest 280 322 13,800 2,032 Climbing Los Angeles Center
Fri 01:58:15 PM 35.8861 -115.4656 264° West 286 329 14,100 182 Climbing Los Angeles Center
Fri 01:59:17 PM 35.8889 -115.5647 272° West 291 335 14,100 726 Level Los Angeles Center
Fri 02:00:19 PM 35.8906 -115.6731 271° West 293 337 15,600 2,032 Climbing Los Angeles Center
Fri 02:01:21 PM 35.8928 -115.7747 272° West 296 341 18,300 2,516 Climbing Los Angeles Center
Fri 02:02:23 PM 35.8942 -115.8831 271° West 316 364 20,800 2,419 Climbing Los Angeles Center
Fri 02:03:25 PM 35.9192 -115.9958 285° West 329 379 23,300 1,597 Climbing Los Angeles Center
Fri 02:04:27 PM 35.9897 -116.0769 317° Northwest 365 420 24,100 1,113 Climbing Los Angeles Center
Fri 02:05:29 PM 36.0844 -116.1861 317° Northwest 412 474 25,600 1,536 Climbing Los Angeles Center
Fri 02:06:32 PM 36.1608 -116.2747 317° Northwest 426 490 27,300 1,728 Climbing Los Angeles Center
Fri 02:07:34 PM 36.2667 -116.3978 317° Northwest 436 502 29,200 1,839 Climbing Los Angeles Center
Fri 02:08:36 PM 36.3544 -116.4992 317° Northwest 434 499 31,100 1,694 Climbing Los Angeles Center
Fri 02:09:38 PM 36.4419 -116.6003 317° Northwest 432 497 32,700 1,403 Climbing Los Angeles Center
Fri 02:10:40 PM 36.5414 -116.7175 317° Northwest 432 497 34,000 629 Climbing Los Angeles Center
Fri 02:11:42 PM 36.6414 -116.8094 324° Northwest 452 520 34,000  Level Los Angeles Center
Fri 02:12:44 PM 36.7486 -116.8872 330° Northwest 450 518 34,000  Level Los Angeles Center
Fri 02:13:46 PM 36.8542 -116.9692 328° Northwest 448 516 34,000  Level Los Angeles Center
Fri 02:14:48 PM 36.9614 -117.0497 329° Northwest 448 516 34,000  Level Los Angeles Center
Fri 02:15:50 PM 37.0689 -117.1328 328° Northwest 452 520 34,000  Level Los Angeles Center
Fri 02:16:31 PM 37.1547 -117.2011 328° Northwest 455 524 34,000  Level Oakland Center
Fri 02:17:32 PM 37.2594 -117.2881 327° Northwest 451 519 34,000  Level Oakland Center
Fri 02:18:34 PM 37.3394 -117.4006 312° West 429 494 34,000  Level Oakland Center
Fri 02:19:36 PM 37.4175 -117.5158 310° West 430 495 34,000  Level Oakland Center
Fri 02:20:37 PM 37.4939 -117.6317 310° West 429 494 34,000  Level Oakland Center
Fri 02:21:39 PM 37.5708 -117.7464 310° West 427 491 34,000  Level Oakland Center
Fri 02:22:41 PM 37.6469 -117.8614 310° West 425 489 34,000 -293 Level Oakland Center
Fri 02:23:42 PM 37.7225 -117.9764 310° West 424 488 33,400 -732 Descending Oakland Center
Fri 02:24:44 PM 37.8142 -118.1161 310° West 427 491 32,500 -677 Descending Oakland Center
Fri 02:25:46 PM 37.8914 -118.2331 310° West 431 496 32,000 -242 Descending Oakland Center
Fri 02:26:48 PM 37.9681 -118.3519 309° West 433 498 32,000  Level Oakland Center
Fri 02:27:49 PM 38.0444 -118.4692 310° West 432 497 32,000  Level Oakland Center
Fri 02:28:51 PM 38.1217 -118.5883 310° West 434 499 32,000 -387 Level Oakland Center
Fri 02:29:53 PM 38.2058 -118.7197 309° West 435 501 31,200 -732 Descending Oakland Center
Fri 02:30:54 PM 38.2842 -118.8389 310° West 437 503 30,500 -585 Descending Oakland Center
Fri 02:31:56 PM 38.3614 -118.9606 309° West 440 506 30,000 -242 Descending Oakland Center
Fri 02:32:58 PM 38.4392 -119.0831 309° West 443 510 30,000  Level Oakland Center
Fri 02:34:00 PM 38.5161 -119.2050 309° West 441 507 30,000 -145 Level Oakland Center
Fri 02:35:02 PM 38.5939 -119.3278 309° West 442 509 29,700 -634 Descending Oakland Center
Fri 02:36:03 PM 38.6708 -119.4511 309° West 443 510 28,700 -927 Descending Oakland Center
Fri 02:37:05 PM 38.7500 -119.5756 309° West 447 514 27,800 -1,065 Descending Oakland Center
Fri 02:38:07 PM 38.8406 -119.7194 309° West 435 501 26,500 -1,073 Descending Oakland Center
Fri 02:39:08 PM 38.9056 -119.8250 308° West 431 496 25,600 -1,024 Descending Oakland Center
Fri 02:40:10 PM 38.9897 -119.9592 309° West 427 491 24,400 -1,016 Descending Oakland Center
Fri 02:41:12 PM 39.0617 -120.0753 309° West 419 482 23,500 -1,113 Descending Oakland Center
Fri 02:42:14 PM 39.1322 -120.1883 309° West 393 452 22,100 -1,512 Descending Oakland Center
Fri 02:43:15 PM 39.1731 -120.3003 295° West 370 426 20,400 -1,610 Descending Oakland Center
Fri 02:44:17 PM 39.1444 -120.4114 252° West 328 377 18,800 -1,548 Descending Oakland Center
Fri 02:45:19 PM 39.1181 -120.5197 253° West 319 367 17,200 -1,415 Descending Oakland Center
Fri 02:46:20 PM 39.0900 -120.6225 251° West 307 353 15,900 -683 Descending Oakland Center
Fri 02:47:22 PM 39.0653 -120.7192 252° West 289 333 15,800 -1,161 Descending Oakland Center
Fri 02:48:24 PM 39.0356 -120.8358 252° West 287 330 13,500 -2,585 Descending Oakland Center
Fri 02:49:25 PM 39.0086 -120.9364 251° West 295 339 10,500 -2,098 Descending Oakland Center
Fri 02:50:27 PM 38.9819 -121.0389 252° West 303 349 9,200 -1,403 Descending Oakland Center
Fri 02:51:29 PM 38.9589 -121.1322 252° West 284 327 7,600 -1,500 Descending Oakland Center
Fri 02:52:31 PM 38.9342 -121.2242 251° West 277 319 6,100 -1,182 Descending Oakland Center
Fri 02:53:41 PM 38.9000 -121.3500 251° West 267 307 5,000 -600 Descending Northern Cal TRACON
Fri 02:54:41 PM 38.9000 -121.4333 270° West 257 296 4,800 -650 Descending Northern Cal TRACON
Fri 02:55:41 PM 38.9000 -121.5333 270° West 247 284 3,700 -950 Descending Northern Cal TRACON
Fri 02:56:41 PM 38.8500 -121.6000 226° Southwest 235 270 2,900 -950 Descending Northern Cal TRACON
Fri 02:57:41 PM 38.8000 -121.6000 180° South 208 239 1,800 -1,000 Descending Northern Cal TRACON
Fri 02:58:35 PM 38.7500 -121.6000 180° South 167 192 1,000 -842 Descending Northern Cal TRACON
Fri 02:59:35 PM 38.7167 -121.6000 180° South 151 174 200 -800 Descending Northern Cal TRACON
Fri 03:01:00 PM 38.6954 -121.5908 218° Southwest  Level Estimated
Fri 03:08:00 PM 38.6954 -121.5908 218° Southwest  Level Estimated
Fri 03:09:00 PM 38.6954 -121.5908 218° Southwest  Level Estimated

Login

Don't have an account? Register now (free) for customized features, flight alerts, and more!